Time;durP1;ratioP1;P1;durP2;ratioP2;P2;SDS_P1;SDS_P2;PMS_P1;PMS_P2;Temp;Humidity;BMP_temperature;BMP_pressure;BME280_temperature;BME280_humidity;BME280_pressure;Samples;Min_cycle;Max_cycle;Signal;HPM_P1;HPM_P2
2022/01/21 00:01:36;;;;;;;9.55;2.65;;;;;;;2.43;70.62;101777.81;5078515;28;20501;-82
2022/01/21 00:04:04;;;;;;;10.32;3.13;;;;;;;2.38;70.73;101774.94;5080251;28;20421;-83
2022/01/21 00:06:33;;;;;;;10.15;3.33;;;;;;;2.32;71.08;101784.09;5091163;28;20040;-83
2022/01/21 00:09:00;;;;;;;12.85;2.67;;;;;;;2.26;71.11;101784.16;5080110;28;20059;-82
2022/01/21 00:11:31;;;;;;;12.00;2.67;;;;;;;2.27;71.03;101788.56;5081412;28;20056;-82
2022/01/21 00:13:59;;;;;;;8.68;2.70;;;;;;;2.25;71.07;101794.31;5100282;28;20417;-83
2022/01/21 00:16:29;;;;;;;14.00;3.00;;;;;;;2.26;71.27;101801.50;5095167;28;20056;-82
2022/01/21 00:19:04;;;;;;;7.07;2.67;;;;;;;2.24;71.43;101795.38;5079302;28;20044;-83
2022/01/21 00:30:14;;;;;;;10.77;2.85;;;;;;;2.47;72.17;101789.22;5078958;28;20059;-83
2022/01/21 00:32:43;;;;;;;11.85;3.33;;;;;;;2.58;71.76;101793.13;5078007;28;20414;-83
2022/01/21 00:35:12;;;;;;;9.60;3.15;;;;;;;2.69;71.70;101813.53;5081833;28;20366;-83
2022/01/21 00:37:41;;;;;;;18.38;2.88;;;;;;;2.75;71.21;101818.97;5097717;28;20056;-82
2022/01/21 00:40:12;;;;;;;5.32;1.92;;;;;;;2.74;71.81;101822.78;5099171;28;20385;-83
2022/01/21 00:43:07;;;;;;;11.00;2.92;;;;;;;2.88;71.69;101830.88;5084068;28;20489;-83
2022/01/21 00:45:35;;;;;;;7.28;2.00;;;;;;;2.90;71.32;101826.84;5079038;28;20060;-82
2022/01/21 00:48:03;;;;;;;11.00;2.72;;;;;;;2.97;71.23;101832.25;5078040;28;20053;-83
2022/01/21 00:50:32;;;;;;;5.35;2.35;;;;;;;2.98;70.85;101829.28;5080192;28;20048;-83
2022/01/21 00:52:59;;;;;;;14.03;3.30;;;;;;;3.03;70.98;101820.34;5080738;28;20048;-82
2022/01/21 00:55:27;;;;;;;8.27;2.53;;;;;;;3.01;70.98;101823.31;5079008;28;20057;-83
2022/01/21 00:57:54;;;;;;;7.82;2.67;;;;;;;3.10;70.36;101823.00;5085664;28;20381;-84
2022/01/21 01:00:22;;;;;;;10.10;3.00;;;;;;;3.10;70.55;101815.56;5096005;28;20044;-83
2022/01/21 01:02:49;;;;;;;8.52;3.05;;;;;;;3.14;69.94;101810.47;5096711;28;20052;-83
2022/01/21 01:05:17;;;;;;;9.32;2.50;;;;;;;3.11;70.02;101817.28;5084888;28;20508;-83
2022/01/21 01:07:45;;;;;;;9.63;2.55;;;;;;;3.23;70.38;101815.41;5098505;28;20084;-83
2022/01/21 01:10:20;;;;;;;12.18;3.20;;;;;;;3.22;69.91;101827.50;5081853;28;20044;-83
2022/01/21 01:12:58;;;;;;;12.43;2.60;;;;;;;3.29;69.94;101826.56;5082718;28;20063;-83
2022/01/21 01:20:56;;;;;;;8.57;2.80;;;;;;;3.32;69.49;101837.97;5098759;28;20536;-83
2022/01/21 01:23:29;;;;;;;11.13;3.00;;;;;;;3.40;69.56;101845.03;5099061;28;20064;-83
2022/01/21 01:28:41;;;;;;;11.25;2.90;;;;;;;3.37;69.78;101827.06;5085294;28;20064;-83
2022/01/21 01:31:08;;;;;;;8.63;3.05;;;;;;;3.36;69.87;101824.56;5092542;28;20408;-83
2022/01/21 01:33:38;;;;;;;9.52;3.28;;;;;;;3.33;69.79;101822.28;5098046;28;20048;-83
2022/01/21 01:36:07;;;;;;;;;;;;;;;3.34;69.98;101821.19;5097868;28;21000;-82
2022/01/21 01:41:26;;;;;;;8.63;3.03;;;;;;;3.36;70.19;101835.56;5080641;28;20044;-83
2022/01/21 01:49:33;;;;;;;15.68;3.42;;;;;;;3.47;70.38;101823.78;5089313;28;20071;-82
2022/01/21 01:52:01;;;;;;;13.23;3.15;;;;;;;3.54;69.83;101818.16;5078895;28;20481;-83
2022/01/21 01:54:33;;;;;;;16.17;3.67;;;;;;;3.43;70.24;101815.13;5097411;28;20051;-82
2022/01/21 01:57:00;;;;;;;8.20;3.10;;;;;;;3.39;70.28;101821.34;5098510;28;20051;-82
2022/01/21 01:59:28;;;;;;;16.52;3.63;;;;;;;3.42;69.86;101812.59;5097748;28;20048;-82
2022/01/21 02:01:57;;;;;;;10.35;3.03;;;;;;;3.44;70.05;101821.47;5097353;28;20063;-83
2022/01/21 02:04:25;;;;;;;10.30;2.95;;;;;;;3.50;69.79;101815.03;5098603;28;20060;-83
2022/01/21 02:06:53;;;;;;;10.30;2.95;;;;;;;3.49;69.80;101821.63;5098612;28;20040;-83
2022/01/21 02:09:22;;;;;;;10.90;2.85;;;;;;;3.45;69.80;101814.91;5098187;28;20071;-82
2022/01/21 02:11:51;;;;;;;16.20;3.78;;;;;;;3.32;69.98;101813.19;5099096;28;20457;-83
2022/01/21 02:14:23;;;;;;;9.80;2.55;;;;;;;3.33;69.99;101803.84;5098484;28;20052;-83
2022/01/21 02:17:15;;;;;;;12.20;3.53;;;;;;;3.26;69.96;101808.59;5098914;28;20428;-83
2022/01/21 02:22:33;;;;;;;12.55;3.40;;;;;;;3.00;69.96;101812.53;5099884;28;20074;-82
2022/01/21 02:25:15;;;;;;;12.13;3.15;;;;;;;2.93;70.62;101809.84;5098880;28;20048;-82
2022/01/21 02:27:43;;;;;;;13.75;3.72;;;;;;;2.91;70.47;101819.41;5103226;28;20056;-83
2022/01/21 02:30:18;;;;;;;10.73;3.03;;;;;;;2.89;70.37;101829.81;5099424;28;20059;-83
2022/01/21 02:32:47;;;;;;;8.73;2.90;;;;;;;2.90;70.77;101820.47;5097185;28;20070;-83
2022/01/21 02:35:15;;;;;;;13.40;3.23;;;;;;;2.95;71.45;101817.91;5102971;28;20056;-83
2022/01/21 02:37:45;;;;;;;11.52;3.22;;;;;;;2.99;71.37;101819.13;5103182;28;20071;-83
2022/01/21 02:40:13;;;;;;;9.38;3.10;;;;;;;2.93;71.24;101828.28;5102476;28;20489;-83
2022/01/21 02:42:41;;;;;;;13.63;2.88;;;;;;;3.02;71.41;101829.66;5102098;28;20413;-83
2022/01/21 02:45:13;;;;;;;11.95;3.20;;;;;;;3.11;71.55;101838.44;5101638;28;20056;-83
2022/01/21 02:47:41;;;;;;;10.70;3.15;;;;;;;3.11;71.40;101839.28;5101899;28;20048;-83
2022/01/21 02:50:11;;;;;;;11.25;3.15;;;;;;;3.16;71.33;101844.09;5101728;28;20054;-82
2022/01/21 02:52:53;;;;;;;11.02;3.15;;;;;;;3.19;71.03;101847.25;5101935;28;20063;-83
2022/01/21 02:55:22;;;;;;;13.30;3.28;;;;;;;3.33;70.90;101838.78;5102842;28;20056;-83
2022/01/21 02:57:51;;;;;;;15.75;4.03;;;;;;;3.41;70.90;101832.97;5101310;28;20047;-82
2022/01/21 03:00:18;;;;;;;9.82;3.42;;;;;;;3.45;70.60;101824.00;5100423;28;20048;-83
2022/01/21 03:02:46;;;;;;;13.98;3.50;;;;;;;3.47;70.38;101828.44;5101817;28;20059;-83
2022/01/21 03:05:15;;;;;;;13.43;3.63;;;;;;;3.39;70.87;101829.59;5101871;28;20051;-84
2022/01/21 03:07:43;;;;;;;12.65;2.85;;;;;;;3.52;70.17;101823.91;5101996;28;20044;-83
2022/01/21 03:10:12;;;;;;;13.60;3.50;;;;;;;3.56;69.58;101830.63;5101191;28;20065;-83
2022/01/21 03:12:41;;;;;;;14.80;3.47;;;;;;;3.42;70.83;101827.25;5100985;28;20075;-82
2022/01/21 03:15:09;;;;;;;14.20;3.70;;;;;;;3.51;70.42;101837.91;5101527;28;20512;-81
2022/01/21 03:17:37;;;;;;;11.20;3.55;;;;;;;3.51;70.87;101836.00;5102284;28;20044;-82
2022/01/21 03:20:05;;;;;;;18.10;3.70;;;;;;;3.62;69.84;101834.38;5101509;28;20048;-82
2022/01/21 03:22:33;;;;;;;17.33;4.50;;;;;;;3.65;70.35;101843.00;5101923;28;20048;-82
2022/01/21 03:25:00;;;;;;;12.02;3.63;;;;;;;3.66;69.94;101841.09;5101263;28;20055;-83
2022/01/21 03:27:28;;;;;;;13.35;3.35;;;;;;;3.72;69.88;101828.31;5099874;28;20493;-83
2022/01/21 03:29:57;;;;;;;14.52;4.07;;;;;;;3.74;69.89;101835.25;5098911;28;20149;-83
2022/01/21 03:32:26;;;;;;;8.40;3.50;;;;;;;3.71;69.95;101843.13;5085859;28;20049;-83
2022/01/21 03:34:53;;;;;;;11.13;4.10;;;;;;;3.75;70.10;101838.84;5091097;28;20059;-83
2022/01/21 03:37:21;;;;;;;11.18;3.55;;;;;;;3.72;69.77;101840.16;5093270;28;20151;-82
2022/01/21 03:39:48;;;;;;;9.57;3.90;;;;;;;3.63;70.41;101842.41;5081447;28;20504;-82
2022/01/21 03:42:16;;;;;;;11.05;3.95;;;;;;;3.71;69.96;101843.97;5095628;28;20059;-83
2022/01/21 03:44:43;;;;;;;16.08;4.97;;;;;;;3.69;70.13;101853.56;5094786;28;20048;-84
2022/01/21 03:47:14;;;;;;;12.15;4.30;;;;;;;3.78;69.88;101850.25;5094206;28;20055;-83
2022/01/21 03:49:52;;;;;;;10.30;3.80;;;;;;;3.78;70.04;101854.88;5092827;28;20048;-82
2022/01/21 03:52:20;;;;;;;12.45;4.07;;;;;;;3.85;70.06;101856.47;5079835;28;20469;-83
2022/01/21 03:54:48;;;;;;;13.30;4.05;;;;;;;3.83;69.85;101846.78;5094249;28;20413;-82
2022/01/21 03:57:15;;;;;;;11.20;4.20;;;;;;;3.83;70.04;101842.09;5086288;28;20051;-82
2022/01/21 03:59:42;;;;;;;8.80;3.78;;;;;;;3.90;69.23;101841.97;5085116;28;20048;-83
2022/01/21 04:02:10;;;;;;;18.83;4.55;;;;;;;3.94;69.39;101834.91;5082214;28;20056;-83
2022/01/21 04:04:39;;;;;;;11.93;4.32;;;;;;;3.92;69.48;101845.34;5092800;28;20048;-82
2022/01/21 04:07:07;;;;;;;15.32;4.25;;;;;;;3.92;69.81;101839.84;5082463;28;20052;-83
2022/01/21 04:09:34;;;;;;;12.20;4.28;;;;;;;3.96;69.52;101838.28;5091373;28;20059;-83
2022/01/21 04:12:02;;;;;;;10.45;4.38;;;;;;;3.95;69.32;101844.03;5092799;28;20055;-82
2022/01/21 04:14:32;;;;;;;8.63;4.05;;;;;;;3.98;69.81;101836.13;5099046;28;20059;-83
2022/01/21 04:16:59;;;;;;;12.07;4.15;;;;;;;4.04;69.23;101851.72;5085230;28;20064;-82
2022/01/21 04:19:27;;;;;;;11.32;3.88;;;;;;;4.06;69.31;101840.47;5096527;28;20404;-83
2022/01/21 04:21:56;;;;;;;11.68;3.70;;;;;;;4.10;69.31;101846.34;5088907;28;20059;-83
2022/01/21 04:24:23;;;;;;;8.85;3.13;;;;;;;4.05;69.31;101849.81;5093066;28;20052;-83
2022/01/21 04:26:50;;;;;;;11.18;3.83;;;;;;;4.10;69.30;101846.34;5099769;28;20381;-83
2022/01/21 04:29:18;;;;;;;8.48;3.58;;;;;;;4.17;69.50;101847.06;5100483;28;20060;-83
2022/01/21 04:31:45;;;;;;;12.40;3.85;;;;;;;4.18;69.35;101849.59;5083313;28;20056;-82
2022/01/21 04:34:12;;;;;;;9.63;3.97;;;;;;;4.24;68.92;101851.41;5080340;28;20059;-82
2022/01/21 04:36:40;;;;;;;8.98;3.45;;;;;;;4.16;69.36;101850.91;5080351;28;20040;-83
2022/01/21 04:39:15;;;;;;;12.48;3.78;;;;;;;4.20;69.23;101855.72;5085424;28;20071;-83
2022/01/21 04:47:13;;;;;;;10.73;3.58;;;;;;;4.15;69.63;101838.19;5088075;28;20048;-83
2022/01/21 04:47:30;;;;;;;13.98;3.97;;;;;;;4.15;69.13;101860.25;5059207;28;20060;-81
2022/01/21 04:49:57;;;;;;;15.15;3.80;;;;;;;4.16;69.26;101848.13;5053332;28;20051;-81
2022/01/21 04:52:25;;;;;;;16.35;5.03;;;;;;;4.05;69.54;101839.63;5075995;28;20052;-82
2022/01/21 04:54:54;;;;;;;12.45;4.05;;;;;;;4.03;69.37;101836.28;5080342;28;20063;-82
2022/01/21 04:57:22;;;;;;;9.40;3.90;;;;;;;4.07;69.60;101840.25;5081811;28;20057;-83
2022/01/21 04:59:49;;;;;;;16.70;5.22;;;;;;;4.10;69.34;101829.81;5093817;28;20059;-83
2022/01/21 05:02:16;;;;;;;11.43;4.32;;;;;;;4.12;68.97;101827.66;5079139;28;20051;-84
2022/01/21 05:04:44;;;;;;;10.43;4.47;;;;;;;4.05;69.56;101838.78;5079164;28;20485;-83
2022/01/21 05:07:14;;;;;;;10.13;4.70;;;;;;;4.06;69.75;101846.81;5095635;28;20059;-83
2022/01/21 05:09:41;;;;;;;;;;;;;;;4.06;69.58;101844.06;5087976;28;20048;-83
2022/01/21 05:12:13;;;;;;;9.27;4.38;;;;;;;4.10;69.39;101843.59;5078162;28;19932;-83
2022/01/21 05:14:50;;;;;;;14.05;4.82;;;;;;;4.13;69.37;101854.97;5078574;28;20052;-83
2022/01/21 05:17:17;;;;;;;11.88;4.47;;;;;;;4.17;69.54;101860.88;5078831;28;20045;-83
2022/01/21 05:19:45;;;;;;;10.75;4.40;;;;;;;4.12;69.77;101861.59;5077278;28;20063;-83
2022/01/21 05:22:12;;;;;;;13.93;4.07;;;;;;;4.13;69.97;101860.50;5096388;28;20079;-83
2022/01/21 05:24:39;;;;;;;13.25;5.50;;;;;;;4.18;69.84;101855.13;5099443;28;20405;-82
2022/01/21 05:27:08;;;;;;;15.98;5.30;;;;;;;4.27;70.07;101869.41;5099523;28;20048;-82
2022/01/21 05:29:36;;;;;;;10.52;4.82;;;;;;;4.36;71.21;101864.38;5099054;28;20056;-83
2022/01/21 05:32:06;;;;;;;11.77;5.18;;;;;;;4.37;70.17;101866.91;5098770;28;20059;-83
2022/01/21 05:34:33;;;;;;;10.70;5.30;;;;;;;4.32;69.85;101861.25;5104643;28;20048;-83
2022/01/21 05:37:01;;;;;;;8.80;4.80;;;;;;;4.37;69.61;101866.06;5097040;28;20478;-83
2022/01/21 05:39:28;;;;;;;10.95;5.88;;;;;;;4.38;69.72;101853.94;5079524;28;20056;-83
2022/01/21 05:41:55;;;;;;;11.63;4.70;;;;;;;4.43;69.47;101865.06;5080756;28;20052;-83
2022/01/21 05:47:11;;;;;;;11.63;5.53;;;;;;;4.37;69.39;101857.78;5078509;28;20053;-83
2022/01/21 05:49:40;;;;;;;11.80;5.72;;;;;;;4.43;69.21;101863.19;5078405;28;20060;-84
2022/01/21 05:52:15;;;;;;;12.57;6.20;;;;;;;4.27;69.04;101864.72;5093358;28;20040;-83
2022/01/21 05:54:43;;;;;;;16.33;7.88;;;;;;;4.37;69.18;101869.66;5098401;28;20075;-82
2022/01/21 05:57:13;;;;;;;12.80;5.90;;;;;;;4.43;69.21;101876.13;5096124;28;20052;-82
2022/01/21 05:59:40;;;;;;;14.15;6.57;;;;;;;4.39;69.10;101867.50;5079048;28;20060;-83
2022/01/21 06:02:09;;;;;;;14.10;6.30;;;;;;;4.40;69.01;101873.84;5079194;28;20049;-83
2022/01/21 06:04:40;;;;;;;14.07;6.43;;;;;;;4.39;68.79;101867.50;5078688;28;20055;-83
2022/01/21 06:07:07;;;;;;;12.13;6.50;;;;;;;4.41;68.99;101870.00;5094310;28;20051;-82
2022/01/21 06:09:37;;;;;;;10.65;6.22;;;;;;;4.32;69.07;101866.75;5098965;28;20059;-83
2022/01/21 06:12:05;;;;;;;11.25;6.60;;;;;;;4.38;68.89;101865.81;5097873;28;20059;-83
2022/01/21 06:14:32;;;;;;;12.32;6.70;;;;;;;4.44;68.71;101873.13;5095546;28;20055;-83
2022/01/21 06:17:00;;;;;;;12.57;7.32;;;;;;;4.38;69.03;101876.00;5095249;28;20063;-82
2022/01/21 06:19:28;;;;;;;12.98;7.55;;;;;;;4.37;68.88;101885.38;5089140;28;20056;-82
2022/01/21 06:21:56;;;;;;;13.70;6.55;;;;;;;4.32;69.16;101880.53;5099371;28;20052;-82
2022/01/21 06:24:23;;;;;;;14.45;6.88;;;;;;;4.34;69.24;101883.06;5098896;28;20044;-83
2022/01/21 06:26:51;;;;;;;12.02;6.55;;;;;;;4.37;69.21;101879.84;5094387;28;20048;-83
2022/01/21 06:29:18;;;;;;;14.40;6.50;;;;;;;4.38;69.00;101887.88;5097484;28;20047;-83
2022/01/21 06:31:45;;;;;;;10.88;6.25;;;;;;;4.42;68.87;101900.09;5084736;28;20060;-82
2022/01/21 06:34:13;;;;;;;11.30;5.50;;;;;;;4.48;68.99;101898.31;5094969;28;20052;-83
2022/01/21 06:36:41;;;;;;;11.60;6.47;;;;;;;4.45;69.13;101907.06;5088246;28;20516;-83
2022/01/21 06:39:09;;;;;;;15.23;6.55;;;;;;;4.47;69.06;101899.38;5078682;28;20052;-83
2022/01/21 06:41:36;;;;;;;12.82;5.47;;;;;;;4.52;69.00;101895.94;5097620;28;20056;-84
2022/01/21 06:44:05;;;;;;;10.02;5.18;;;;;;;4.54;68.67;101897.38;5097898;28;20056;-84
2022/01/21 06:46:32;;;;;;;13.73;5.15;;;;;;;4.47;68.81;101886.47;5086480;28;20057;-84
2022/01/21 06:48:59;;;;;;;10.73;5.13;;;;;;;4.45;69.21;101894.13;5078337;28;20409;-83
2022/01/21 06:51:27;;;;;;;12.05;5.03;;;;;;;4.43;69.47;101896.28;5087423;28;20049;-83
2022/01/21 06:53:55;;;;;;;9.98;5.20;;;;;;;4.43;69.46;101896.28;5091680;28;20055;-84
2022/01/21 06:56:23;;;;;;;11.80;5.07;;;;;;;4.43;69.45;101903.69;5093438;28;20055;-83
2022/01/21 06:58:50;;;;;;;9.30;5.18;;;;;;;4.44;69.54;101910.91;5095733;28;20060;-84
2022/01/21 07:01:18;;;;;;;10.88;6.15;;;;;;;4.42;69.42;101916.66;5097313;28;20055;-84
2022/01/21 07:03:45;;;;;;;13.55;6.25;;;;;;;4.41;69.32;101914.13;5098479;28;20056;-84
2022/01/21 07:06:12;;;;;;;14.68;6.07;;;;;;;4.44;69.46;101917.25;5096418;28;20094;-84
2022/01/21 07:08:40;;;;;;;11.43;5.55;;;;;;;4.42;69.22;101926.88;5097482;28;20059;-83
2022/01/21 07:11:09;;;;;;;10.75;5.22;;;;;;;4.39;69.43;101924.56;5097749;28;20059;-83
2022/01/21 07:13:36;;;;;;;11.37;5.40;;;;;;;4.39;69.63;101921.81;5102641;28;20135;-83
2022/01/21 07:16:04;;;;;;;11.02;5.80;;;;;;;4.30;69.97;101909.44;5103159;28;20446;-82
2022/01/21 07:18:31;;;;;;;13.75;5.05;;;;;;;4.33;69.78;101903.47;5101638;28;20052;-83
2022/01/21 07:20:59;;;;;;;12.13;5.70;;;;;;;4.37;69.31;101897.25;5101602;28;20055;-83
2022/01/21 07:23:26;;;;;;;10.40;5.53;;;;;;;4.41;69.63;101906.72;5101554;28;20052;-82
2022/01/21 07:25:53;;;;;;;6.47;4.93;;;;;;;4.38;69.46;101906.34;5099150;28;20070;-83
2022/01/21 07:28:22;;;;;;;12.32;5.43;;;;;;;4.40;69.94;101902.25;5099437;28;20067;-83
2022/01/21 07:30:50;;;;;;;8.27;5.47;;;;;;;4.33;69.95;101917.25;5094785;28;20063;-80
2022/01/21 07:33:20;;;;;;;12.02;5.32;;;;;;;4.37;70.07;101924.81;5088868;28;20051;-79
2022/01/21 07:35:48;;;;;;;9.85;5.28;;;;;;;4.25;70.71;101926.72;5096302;28;20071;-80
2022/01/21 07:38:15;;;;;;;7.93;4.80;;;;;;;4.36;70.58;101934.16;5092948;28;20047;-79
2022/01/21 07:40:43;;;;;;;16.33;6.18;;;;;;;4.51;69.62;101938.38;5094361;28;20412;-80
2022/01/21 07:43:11;;;;;;;13.00;5.10;;;;;;;4.60;70.00;101939.72;5097565;28;20051;-79
2022/01/21 07:45:39;;;;;;;10.23;4.60;;;;;;;4.66;69.65;101949.78;5086602;28;20049;-79
2022/01/21 07:48:07;;;;;;;10.05;4.70;;;;;;;4.73;69.53;101947.78;5091073;28;20416;-79
2022/01/21 07:50:35;;;;;;;9.43;4.93;;;;;;;4.65;69.45;101945.38;5097477;28;20063;-79
2022/01/21 07:53:04;;;;;;;9.45;4.80;;;;;;;4.74;69.45;101943.09;5099044;28;20044;-79
2022/01/21 07:55:31;;;;;;;9.75;4.57;;;;;;;4.86;68.92;101944.78;5097229;28;20533;-79
2022/01/21 07:58:00;;;;;;;10.48;5.43;;;;;;;4.70;69.35;101942.72;5089021;28;20047;-79
2022/01/21 08:00:28;;;;;;;7.28;3.92;;;;;;;4.74;68.99;101935.66;5099062;28;20103;-78
2022/01/21 08:02:57;;;;;;;10.02;5.00;;;;;;;4.85;68.75;101945.88;5098381;28;20055;-79
2022/01/21 08:05:28;;;;;;;10.20;5.65;;;;;;;4.98;68.35;101949.47;5096005;28;20507;-79
2022/01/21 08:07:56;;;;;;;10.15;5.28;;;;;;;5.05;67.82;101947.41;5097299;28;20059;-79
2022/01/21 08:10:23;;;;;;;10.05;5.60;;;;;;;5.03;67.95;101938.53;5095984;28;20056;-79
2022/01/21 08:12:51;;;;;;;10.35;6.10;;;;;;;5.05;68.17;101936.38;5092197;28;20052;-79
2022/01/21 08:15:18;;;;;;;14.55;6.57;;;;;;;4.96;68.33;101932.31;5091805;28;20047;-78
2022/01/21 08:17:46;;;;;;;9.23;5.95;;;;;;;5.04;67.91;101918.09;5097221;28;20052;-81
2022/01/21 08:20:15;;;;;;;11.32;6.03;;;;;;;5.08;67.74;101928.44;5091977;28;20067;-84
2022/01/21 08:22:42;;;;;;;9.93;6.25;;;;;;;5.16;67.27;101927.22;5094272;28;20044;-86
2022/01/21 08:25:10;;;;;;;11.90;7.05;;;;;;;5.17;67.82;101928.91;5090259;28;20498;-85
2022/01/21 08:27:38;;;;;;;12.95;7.45;;;;;;;5.24;67.42;101926.84;5095571;28;20444;-84
2022/01/21 08:30:06;;;;;;;14.00;7.68;;;;;;;5.29;66.95;101939.94;5098990;28;20048;-84
2022/01/21 08:32:37;;;;;;;12.15;7.43;;;;;;;5.24;67.28;101932.38;5101700;28;20067;-84
2022/01/21 08:35:06;;;;;;;17.10;8.68;;;;;;;5.12;67.76;101937.06;5094492;28;20056;-82
2022/01/21 08:37:35;;;;;;;12.02;7.70;;;;;;;5.27;67.19;101939.34;5092499;28;20502;-83
2022/01/21 08:40:05;;;;;;;13.02;8.05;;;;;;;5.33;66.92;101949.41;5086050;28;20052;-84
2022/01/21 08:42:32;;;;;;;14.63;7.57;;;;;;;5.39;66.63;101947.63;5095652;28;21031;-86
2022/01/21 08:44:59;;;;;;;14.70;7.72;;;;;;;5.43;66.37;101946.03;5087878;28;20032;-86
2022/01/21 08:47:27;;;;;;;11.32;7.50;;;;;;;5.43;66.25;101955.16;5100762;28;20048;-86
2022/01/21 08:49:56;;;;;;;12.80;7.38;;;;;;;5.50;66.83;101943.97;5092508;28;20055;-86
2022/01/21 08:52:27;;;;;;;11.70;7.70;;;;;;;5.55;66.87;101946.84;5090378;28;20059;-86
2022/01/21 08:54:56;;;;;;;11.70;7.30;;;;;;;5.43;66.44;101948.81;5084685;28;20081;-86
2022/01/21 08:57:25;;;;;;;9.90;7.05;;;;;;;5.55;66.45;101954.31;5097620;28;20059;-85
2022/01/21 08:59:52;;;;;;;10.05;6.43;;;;;;;5.39;66.97;101953.97;5095671;28;20055;-83
2022/01/21 09:02:19;;;;;;;14.52;7.32;;;;;;;5.55;66.30;101957.09;5080270;28;20049;-83
2022/01/21 09:04:48;;;;;;;13.05;6.57;;;;;;;5.58;66.38;101960.16;5084275;28;20059;-81
2022/01/21 09:07:15;;;;;;;14.35;6.95;;;;;;;5.65;66.04;101952.59;5084354;28;20064;-81
2022/01/21 09:09:43;;;;;;;11.80;7.20;;;;;;;5.65;66.34;101951.78;5083149;28;20040;-83
2022/01/21 09:12:11;;;;;;;11.57;6.60;;;;;;;5.67;66.61;101946.84;5083988;28;20060;-83
2022/01/21 09:14:39;;;;;;;12.73;6.57;;;;;;;5.74;66.10;101943.91;5093379;28;20488;-83
2022/01/21 09:17:07;;;;;;;12.57;7.75;;;;;;;5.94;65.46;101949.84;5094787;28;20052;-84
2022/01/21 09:19:34;;;;;;;13.20;7.75;;;;;;;5.92;65.78;101953.94;5100820;28;20058;-82
2022/01/21 09:22:03;;;;;;;12.18;8.05;;;;;;;6.01;65.78;101955.28;5100527;28;20067;-85
2022/01/21 09:24:31;;;;;;;13.48;7.53;;;;;;;6.10;65.43;101954.59;5095205;28;20051;-84
2022/01/21 09:26:59;;;;;;;10.18;6.10;;;;;;;6.23;64.84;101958.16;5093885;28;20059;-84
2022/01/21 09:29:32;;;;;;;11.00;6.25;;;;;;;6.23;64.65;101958.16;5101901;28;20052;-82
2022/01/21 09:32:01;;;;;;;14.55;5.47;;;;;;;6.18;64.55;101958.06;5104782;28;20056;-83
2022/01/21 09:34:32;;;;;;;13.27;7.03;;;;;;;6.35;64.80;101950.63;5101566;28;20493;-82
2022/01/21 09:37:01;;;;;;;14.95;7.15;;;;;;;6.35;63.86;101950.63;5106023;28;20457;-83
2022/01/21 09:39:30;;;;;;;12.73;6.32;;;;;;;6.44;63.55;101938.06;5088703;28;20057;-82
2022/01/21 09:42:04;;;;;;;12.03;6.67;;;;;;;6.71;62.89;101946.53;5096804;28;20048;-82
2022/01/21 09:44:35;;;;;;;10.38;6.07;;;;;;;6.98;62.44;101943.06;5097420;28;20059;-83
2022/01/21 09:47:14;;;;;;;13.07;6.75;;;;;;;6.93;61.92;101947.69;5089745;28;20048;-80
2022/01/21 09:49:44;;;;;;;9.95;5.53;;;;;;;7.06;62.27;101937.09;5095233;28;20059;-83
2022/01/21 09:52:13;;;;;;;;;;;;;;;7.07;61.12;101952.63;5102491;28;20052;-80
2022/01/21 09:54:45;;;;;;;10.52;5.95;;;;;;;7.03;61.52;101961.69;5082964;28;19927;-83
2022/01/21 09:57:18;;;;;;;9.25;6.10;;;;;;;7.13;61.34;101953.53;5083658;28;20060;-82
2022/01/21 09:59:47;;;;;;;12.40;6.05;;;;;;;7.16;61.38;101952.19;5085003;28;20056;-83
2022/01/21 10:02:21;;;;;;;11.13;5.57;;;;;;;7.60;60.51;101953.09;5098915;28;20055;-84
2022/01/21 10:04:52;;;;;;;10.68;5.47;;;;;;;8.07;59.35;101946.97;5101126;28;20496;-84
2022/01/21 10:07:22;;;;;;;9.45;5.20;;;;;;;8.51;58.50;101955.19;5094662;28;20052;-82
2022/01/21 10:09:52;;;;;;;8.60;4.45;;;;;;;8.82;57.47;101960.16;5099985;28;20063;-87
2022/01/21 10:12:20;;;;;;;;;;;;;;;8.79;56.97;101950.41;5102273;28;20052;-86
2022/01/21 10:14:49;;;;;;;8.52;5.03;;;;;;;9.08;56.12;101948.13;5100693;28;19920;-84
2022/01/21 10:17:17;;;;;;;8.83;4.83;;;;;;;9.36;55.63;101957.19;5096546;28;20048;-84
2022/01/21 10:19:48;;;;;;;10.55;5.65;;;;;;;9.30;56.07;101958.25;5083004;28;20053;-84
2022/01/21 10:22:19;;;;;;;10.48;4.50;;;;;;;9.23;55.97;101961.28;5083937;28;20057;-83
2022/01/21 10:24:57;;;;;;;14.93;5.38;;;;;;;9.26;55.71;101966.31;5085703;28;20071;-83
2022/01/21 10:27:25;;;;;;;9.02;5.72;;;;;;;8.98;56.15;101969.44;5082298;28;20056;-84
2022/01/21 10:29:55;;;;;;;11.13;5.55;;;;;;;9.04;56.26;101969.22;5087686;28;20055;-82
2022/01/21 10:32:35;;;;;;;;;;;;;;;8.94;56.38;101970.00;5078278;28;20385;-83
2022/01/21 10:35:05;;;;;;;9.63;4.47;;;;;;;8.78;56.78;101976.53;5073794;28;19920;-82
2022/01/21 10:37:35;;;;;;;;;;;;;;;8.50;55.65;101974.88;5077137;28;20053;-83
2022/01/21 10:40:06;;;;;;;7.45;4.07;;;;;;;8.68;56.50;101966.16;5071631;28;19928;-82
2022/01/21 10:42:37;;;;;;;9.15;4.15;;;;;;;9.19;55.51;101962.91;5075291;28;20052;-83
2022/01/21 10:45:09;;;;;;;8.82;4.15;;;;;;;9.39;54.95;101962.22;5078246;28;20048;-84
2022/01/21 10:47:42;;;;;;;10.60;4.05;;;;;;;9.92;53.10;101964.94;5084076;28;20052;-84
2022/01/21 10:50:15;;;;;;;11.32;3.72;;;;;;;10.51;51.89;101958.97;5083945;28;20120;-83
2022/01/21 10:52:46;;;;;;;8.20;3.75;;;;;;;10.66;51.39;101957.31;5090290;28;20053;-84
2022/01/21 10:55:28;;;;;;;7.40;3.78;;;;;;;10.80;51.26;101952.84;5084616;28;20052;-84
2022/01/21 10:58:06;;;;;;;5.93;3.00;;;;;;;13.61;45.53;101949.44;5085445;28;20060;-84
2022/01/21 11:00:35;;;;;;;7.15;2.85;;;;;;;12.59;47.09;101948.47;5084053;28;20052;-85
2022/01/21 11:03:10;;;;;;;9.75;3.95;;;;;;;12.16;47.89;101946.28;5086465;28;20685;-85
2022/01/21 11:05:41;;;;;;;9.82;4.20;;;;;;;11.77;48.36;101947.00;5083262;28;20843;-83
2022/01/21 11:08:10;;;;;;;9.27;3.63;;;;;;;11.46;48.70;101951.03;5082678;28;20457;-85
2022/01/21 11:10:45;;;;;;;11.52;4.07;;;;;;;11.09;48.97;101953.09;5079028;28;20052;-84
2022/01/21 11:13:39;;;;;;;8.18;3.72;;;;;;;10.43;50.20;101955.88;5087648;28;20054;-84
2022/01/21 11:16:12;;;;;;;7.55;3.45;;;;;;;10.50;50.70;101948.13;5088166;28;20052;-83
2022/01/21 11:18:50;;;;;;;10.65;5.20;;;;;;;10.32;51.12;101943.91;5087441;28;20060;-80
2022/01/21 11:21:18;;;;;;;10.63;5.72;;;;;;;10.23;51.73;101939.97;5083435;28;20059;-83
2022/01/21 11:23:46;;;;;;;14.90;6.95;;;;;;;10.40;51.58;101928.59;5082744;28;20524;-79
2022/01/21 11:26:16;;;;;;;14.73;6.63;;;;;;;10.47;51.67;101926.38;5077879;28;20048;-80
2022/01/21 11:28:47;;;;;;;10.77;6.38;;;;;;;10.88;50.32;101926.38;5079867;28;20505;-79
2022/01/21 11:31:20;;;;;;;11.43;5.95;;;;;;;10.95;50.07;101936.09;5096551;28;20048;-82
2022/01/21 11:33:48;;;;;;;9.88;5.43;;;;;;;10.81;50.55;101923.84;5097774;28;20055;-83
2022/01/21 11:36:16;;;;;;;9.23;5.60;;;;;;;10.63;51.06;101921.66;5098278;28;20048;-80
2022/01/21 11:38:45;;;;;;;10.60;5.75;;;;;;;11.37;49.56;101903.38;5102836;28;20056;-81
2022/01/21 11:41:18;;;;;;;10.45;4.97;;;;;;;13.36;45.55;101903.81;5106472;28;20056;-81
2022/01/21 11:43:51;;;;;;;8.07;4.63;;;;;;;13.04;45.62;101911.97;5105732;28;20058;-81
2022/01/21 11:46:37;;;;;;;10.07;5.18;;;;;;;12.08;46.79;101910.56;5093702;28;20056;-79
2022/01/21 11:49:09;;;;;;;9.75;4.80;;;;;;;11.13;49.42;101919.91;5089523;28;20063;-81
2022/01/21 11:51:38;;;;;;;10.05;5.38;;;;;;;10.67;50.99;101920.81;5089675;28;20052;-82
2022/01/21 11:54:07;;;;;;;9.85;5.30;;;;;;;10.47;51.34;101920.78;5088391;28;20063;-81
2022/01/21 11:56:42;;;;;;;14.63;4.63;;;;;;;10.42;51.62;101920.81;5088033;28;20047;-81
2022/01/21 11:59:23;;;;;;;11.77;4.75;;;;;;;10.29;52.20;101914.66;5087455;28;20409;-81
2022/01/21 12:01:53;;;;;;;10.93;4.35;;;;;;;10.21;52.16;101917.13;5086535;28;20060;-81
2022/01/21 12:04:39;;;;;;;9.23;5.03;;;;;;;10.23;51.99;101907.38;5088925;28;20547;-80
2022/01/21 12:07:44;;;;;;;10.35;5.78;;;;;;;10.12;52.60;101914.91;5092636;28;20052;-80
2022/01/21 12:10:13;;;;;;;12.20;6.53;;;;;;;10.04;53.09;101909.88;5084590;28;20055;-83
2022/01/21 12:13:08;;;;;;;12.18;6.70;;;;;;;10.05;52.87;101908.75;5097717;28;20044;-82